createdAt,value
2023-03-03T00:02:14.240Z,100154.38
2023-03-03T00:04:42.044Z,100158.13
2023-03-03T00:07:09.595Z,100155.66
2023-03-03T00:09:36.994Z,100155.37
2023-03-03T00:12:26.481Z,100152.69
2023-03-03T00:14:54.562Z,100151.94
2023-03-03T00:17:25.628Z,100153.16
2023-03-03T00:19:53.760Z,100153.09
2023-03-03T00:22:30.307Z,100155.72
2023-03-03T00:25:29.053Z,100150.31
2023-03-03T00:28:01.540Z,100141.69
2023-03-03T00:30:29.473Z,100154.06
2023-03-03T00:32:57.007Z,100142.50
2023-03-03T00:35:35.742Z,100157.53
2023-03-03T00:38:14.806Z,100152.37
2023-03-03T00:40:42.752Z,100150.47
2023-03-03T00:43:23.798Z,100141.59
2023-03-03T00:45:51.809Z,100151.09
2023-03-03T00:48:23.650Z,100151.19
2023-03-03T00:50:53.132Z,100140.16
2023-03-03T00:53:22.464Z,100143.16
2023-03-03T00:55:51.224Z,100138.09
2023-03-03T00:58:21.629Z,100139.06
2023-03-03T01:00:51.707Z,100139.72
2023-03-03T01:03:22.431Z,100133.75
2023-03-03T01:05:50.569Z,100120.50
2023-03-03T01:08:19.258Z,100134.47
2023-03-03T01:10:52.977Z,100126.75
2023-03-03T01:13:24.079Z,100123.19
2023-03-03T01:15:52.719Z,100120.44
2023-03-03T01:18:20.767Z,100118.94
2023-03-03T01:20:48.640Z,100112.59
2023-03-03T01:23:16.033Z,100112.91
2023-03-03T01:25:43.440Z,100115.25
2023-03-03T01:28:11.427Z,100109.97
2023-03-03T01:30:39.455Z,100107.50
2023-03-03T01:33:07.195Z,100103.78
2023-03-03T01:35:36.671Z,100109.88
2023-03-03T01:38:04.183Z,100096.78
2023-03-03T01:40:31.790Z,100100.19
2023-03-03T01:43:01.266Z,100094.09
2023-03-03T01:45:31.254Z,100096.75
2023-03-03T01:48:05.498Z,100101.97
2023-03-03T01:50:37.565Z,100094.00
2023-03-03T01:53:07.144Z,100100.06
2023-03-03T01:55:37.766Z,100093.94
2023-03-03T01:58:10.814Z,100093.78
2023-03-03T02:00:41.614Z,100088.50
2023-03-03T02:03:10.033Z,100083.28
2023-03-03T02:05:37.915Z,100087.44
2023-03-03T02:08:05.716Z,100096.88
2023-03-03T02:10:36.325Z,100090.88
2023-03-03T02:13:04.915Z,100089.00
2023-03-03T02:15:37.268Z,100088.34
2023-03-03T02:18:12.850Z,100075.00
2023-03-03T02:20:43.538Z,100077.44
2023-03-03T02:23:33.126Z,100075.72
2023-03-03T02:26:13.705Z,100077.84
2023-03-03T02:28:42.664Z,100076.69
2023-03-03T02:31:14.337Z,100069.34
2023-03-03T02:33:43.817Z,100075.59
2023-03-03T02:36:13.862Z,100073.81
2023-03-03T02:38:44.552Z,100073.53
2023-03-03T02:41:28.184Z,100071.56
2023-03-03T02:44:02.438Z,100070.06
2023-03-03T02:46:39.832Z,100064.50
2023-03-03T02:49:08.730Z,100072.56
2023-03-03T02:51:36.793Z,100069.78
2023-03-03T02:54:05.607Z,100063.31
2023-03-03T02:56:33.688Z,100062.47
2023-03-03T02:59:01.736Z,100064.03
2023-03-03T03:01:32.170Z,100053.53
2023-03-03T03:03:59.958Z,100042.06
2023-03-03T03:06:28.085Z,100048.06
2023-03-03T03:08:56.305Z,100045.38
2023-03-03T03:11:24.068Z,100052.41
2023-03-03T03:13:52.036Z,100043.78
2023-03-03T03:16:19.683Z,100037.25
2023-03-03T03:18:47.339Z,100045.78
2023-03-03T03:21:15.332Z,100042.44
2023-03-03T03:23:42.991Z,100035.41
2023-03-03T03:26:12.415Z,100032.72
2023-03-03T03:28:40.249Z,100034.25
2023-03-03T03:31:09.802Z,100029.66
2023-03-03T03:33:37.850Z,100028.09
2023-03-03T03:36:06.461Z,100027.97
2023-03-03T03:38:34.758Z,100029.81
2023-03-03T03:41:03.103Z,100021.66
2023-03-03T03:43:31.180Z,100025.00
2023-03-03T03:45:58.984Z,100017.06
2023-03-03T03:48:27.119Z,100020.37
2023-03-03T03:50:56.130Z,100017.00
2023-03-03T03:53:23.896Z,100023.00
2023-03-03T03:55:52.014Z,100023.84
2023-03-03T03:58:19.906Z,100019.44
2023-03-03T04:00:48.653Z,100016.91
2023-03-03T04:03:16.757Z,100015.06
2023-03-03T04:05:44.703Z,100018.41
2023-03-03T04:08:13.176Z,100015.75
2023-03-03T04:10:40.990Z,100007.84
2023-03-03T04:13:08.522Z,100010.41
2023-03-03T04:15:36.363Z,100003.94
2023-03-03T04:18:04.669Z,100005.94
2023-03-03T04:20:32.219Z,100006.63
2023-03-03T04:22:59.707Z,100004.78
2023-03-03T04:25:27.491Z,99996.97
2023-03-03T04:27:55.087Z,99999.22
2023-03-03T04:30:23.035Z,99998.44
2023-03-03T04:32:51.292Z,99998.53
2023-03-03T04:35:19.788Z,100001.78
2023-03-03T04:37:47.402Z,100003.34
2023-03-03T04:40:17.299Z,100001.50
2023-03-03T04:42:46.075Z,99997.03
2023-03-03T04:45:13.855Z,99997.91
2023-03-03T04:47:41.800Z,99997.41
2023-03-03T04:50:11.027Z,99988.28
2023-03-03T04:52:38.668Z,99994.72
2023-03-03T04:55:10.351Z,100001.62
2023-03-03T04:57:38.895Z,99994.47
2023-03-03T05:00:07.626Z,99994.28
2023-03-03T05:05:04.341Z,99991.44
2023-03-03T05:07:32.184Z,100001.84
2023-03-03T05:09:59.796Z,99994.19
2023-03-03T05:12:27.360Z,100004.13
2023-03-03T05:14:55.241Z,99999.19
2023-03-03T05:17:23.021Z,99995.84
2023-03-03T05:19:50.403Z,99999.84
2023-03-03T05:22:18.352Z,100001.84
2023-03-03T05:24:49.136Z,99998.06
2023-03-03T05:27:17.106Z,99996.22
2023-03-03T05:29:44.935Z,100001.34
2023-03-03T05:32:12.389Z,99996.28
2023-03-03T05:34:39.962Z,100002.25
2023-03-03T05:39:36.827Z,100004.03
2023-03-03T05:42:04.572Z,100003.06
2023-03-03T05:44:32.404Z,100007.38
2023-03-03T05:46:59.788Z,100006.37
2023-03-03T05:49:27.578Z,100006.28
2023-03-03T05:51:55.283Z,100008.88
2023-03-03T05:54:22.840Z,100008.78
2023-03-03T05:56:50.352Z,100015.19
2023-03-03T05:59:19.347Z,100019.03
2023-03-03T06:01:46.986Z,100016.47
2023-03-03T06:04:14.786Z,100015.59
2023-03-03T06:06:42.347Z,100016.59
2023-03-03T06:09:09.861Z,100016.34
2023-03-03T06:11:37.713Z,100014.69
2023-03-03T06:14:05.572Z,100016.91
2023-03-03T06:16:32.997Z,100024.94
2023-03-03T06:19:01.442Z,100021.66
2023-03-03T06:21:30.040Z,100027.41
2023-03-03T06:23:57.744Z,100020.09
2023-03-03T06:26:25.679Z,100027.84
2023-03-03T06:28:55.457Z,100028.81
2023-03-03T06:31:23.124Z,100032.44
2023-03-03T06:33:51.578Z,100030.00
2023-03-03T06:36:19.253Z,100024.25
2023-03-03T06:38:46.919Z,100031.09
2023-03-03T06:41:14.770Z,100027.69
2023-03-03T06:43:42.307Z,100034.72
2023-03-03T06:46:09.941Z,100032.81
2023-03-03T06:48:37.641Z,100028.62
2023-03-03T06:51:20.706Z,100026.97
2023-03-03T06:53:50.312Z,100029.25
2023-03-03T06:56:18.592Z,100029.75
2023-03-03T06:58:46.183Z,100033.25
2023-03-03T07:01:17.352Z,100035.66
2023-03-03T07:03:44.774Z,100046.63
2023-03-03T07:06:32.435Z,100040.81
2023-03-03T07:09:01.227Z,100046.59
2023-03-03T07:11:31.422Z,100046.81
2023-03-03T07:13:58.880Z,100052.53
2023-03-03T07:16:28.190Z,100053.78
2023-03-03T07:18:57.851Z,100047.59
2023-03-03T07:21:32.161Z,100053.22
2023-03-03T07:24:02.066Z,100056.00
2023-03-03T07:26:32.972Z,100062.78
2023-03-03T07:29:23.477Z,100058.31
2023-03-03T07:31:51.423Z,100064.28
2023-03-03T07:34:27.750Z,100065.47
2023-03-03T07:37:01.247Z,100064.91
2023-03-03T07:39:32.295Z,100069.81
2023-03-03T07:42:09.604Z,100061.25
2023-03-03T07:44:38.121Z,100060.22
2023-03-03T07:47:26.983Z,100065.97
2023-03-03T07:49:57.224Z,100063.56
2023-03-03T07:52:43.158Z,100067.75
2023-03-03T07:55:26.002Z,100077.59
2023-03-03T07:57:59.090Z,100079.03
2023-03-03T08:00:30.359Z,100067.97
2023-03-03T08:03:01.243Z,100079.94
2023-03-03T08:05:35.993Z,100077.22
2023-03-03T08:08:31.695Z,100081.75
2023-03-03T08:11:03.345Z,100071.44
2023-03-03T08:13:34.038Z,100073.28
2023-03-03T08:16:11.567Z,100072.97
2023-03-03T08:18:47.937Z,100071.09
2023-03-03T08:21:20.541Z,100076.84
2023-03-03T08:23:53.322Z,100076.88
2023-03-03T08:26:22.193Z,100067.72
2023-03-03T08:28:50.557Z,100067.53
2023-03-03T08:31:30.800Z,100068.97
2023-03-03T08:34:05.997Z,100070.06
2023-03-03T08:36:34.781Z,100078.72
2023-03-03T08:39:04.377Z,100067.72
2023-03-03T08:41:32.233Z,100074.56
2023-03-03T08:43:59.895Z,100067.91
2023-03-03T08:46:28.853Z,100065.31
2023-03-03T08:48:56.759Z,100069.84
2023-03-03T08:51:25.284Z,100070.84
2023-03-03T08:53:52.972Z,100079.41
2023-03-03T08:56:20.735Z,100076.75
2023-03-03T08:59:03.808Z,100068.03
2023-03-03T09:01:32.698Z,100063.84
2023-03-03T09:04:00.641Z,100065.03
2023-03-03T09:06:28.275Z,100066.34
2023-03-03T09:08:55.966Z,100067.09
2023-03-03T09:11:27.583Z,100060.31
2023-03-03T09:14:06.786Z,100064.28
2023-03-03T09:16:38.985Z,100065.03
2023-03-03T09:19:23.490Z,100060.69
2023-03-03T09:21:54.730Z,100055.56
2023-03-03T09:24:32.037Z,100067.84
2023-03-03T09:27:00.019Z,100062.84
2023-03-03T09:29:29.606Z,100057.00
2023-03-03T09:32:00.496Z,100062.69
2023-03-03T09:34:37.557Z,100053.19
2023-03-03T09:37:24.722Z,100059.75
2023-03-03T09:39:57.566Z,100068.16
2023-03-03T09:42:42.954Z,100065.69
2023-03-03T09:45:27.653Z,100076.19
2023-03-03T09:48:23.708Z,100064.47
2023-03-03T09:51:07.053Z,100064.97
2023-03-03T09:54:03.940Z,100065.25
2023-03-03T09:56:39.878Z,100069.31
2023-03-03T09:59:15.165Z,100050.53
2023-03-03T10:02:06.560Z,100046.94
2023-03-03T10:04:57.560Z,100056.00
2023-03-03T10:07:39.486Z,100045.44
2023-03-03T10:10:39.723Z,100047.53
2023-03-03T10:13:30.778Z,100049.53
2023-03-03T10:16:37.353Z,100037.94
2023-03-03T10:19:14.034Z,100041.88
2023-03-03T10:22:20.687Z,100041.59
2023-03-03T10:25:00.796Z,100038.75
2023-03-03T10:27:43.701Z,100036.00
2023-03-03T10:30:36.994Z,100038.06
2023-03-03T10:33:14.291Z,100028.88
2023-03-03T10:36:07.341Z,100023.69
2023-03-03T10:39:17.394Z,100010.03
2023-03-03T10:42:03.898Z,100016.06
2023-03-03T10:45:23.069Z,100013.25
2023-03-03T10:48:32.441Z,100010.81
2023-03-03T10:51:18.612Z,100006.37
2023-03-03T10:53:59.760Z,100012.50
2023-03-03T10:56:52.770Z,100005.84
2023-03-03T10:59:42.214Z,100000.44
2023-03-03T11:02:12.898Z,99995.56
2023-03-03T11:05:05.312Z,99994.03
2023-03-03T11:07:49.622Z,99997.56
2023-03-03T11:10:25.922Z,99991.28
2023-03-03T11:13:19.326Z,99992.72
2023-03-03T11:15:56.265Z,99984.81
2023-03-03T11:18:49.510Z,99985.66
2023-03-03T11:21:26.710Z,99979.16
2023-03-03T11:24:12.852Z,99973.38
2023-03-03T11:27:05.890Z,99961.59
2023-03-03T11:30:04.256Z,99963.47
2023-03-03T11:32:34.947Z,99963.69
2023-03-03T11:35:21.357Z,99963.84
2023-03-03T11:38:01.221Z,99957.66
2023-03-03T11:40:38.202Z,99952.38
2023-03-03T11:46:00.769Z,99943.34
2023-03-03T11:48:41.875Z,99945.88
2023-03-03T11:51:23.283Z,99940.44
2023-03-03T11:53:57.781Z,99945.75
2023-03-03T11:59:35.000Z,99936.28
2023-03-03T12:05:50.575Z,99929.41
2023-03-03T12:08:28.473Z,99929.41
2023-03-03T12:11:04.890Z,99937.34
2023-03-03T12:20:46.416Z,99905.62
2023-03-03T12:23:47.343Z,99905.62
2023-03-03T12:29:06.846Z,99904.44
2023-03-03T12:31:47.726Z,99904.44
2023-03-03T12:34:23.365Z,99912.53
2023-03-03T12:37:10.461Z,99907.84
2023-03-03T12:43:38.042Z,99888.94
2023-03-03T12:46:29.350Z,99888.94
2023-03-03T12:52:34.096Z,99889.69
2023-03-03T12:58:03.111Z,99880.06
2023-03-03T13:00:48.093Z,99880.06
2023-03-03T13:06:20.570Z,99867.88
2023-03-03T13:12:08.763Z,99883.81
2023-03-03T13:14:57.654Z,99881.72
2023-03-03T13:23:22.364Z,99871.22
2023-03-03T13:28:43.150Z,99865.34
2023-03-03T13:32:41.629Z,99868.47
2023-03-03T13:38:30.200Z,99877.25
2023-03-03T13:41:01.527Z,99874.13
2023-03-03T13:49:41.918Z,99851.56
2023-03-03T13:52:12.541Z,99851.56
2023-03-03T13:54:50.108Z,99852.53
2023-03-03T13:57:20.722Z,99847.50
2023-03-03T13:59:57.328Z,99841.03
2023-03-03T14:02:46.839Z,99845.94
2023-03-03T14:05:27.135Z,99850.00
2023-03-03T14:08:00.494Z,99849.31
2023-03-03T14:10:43.253Z,99846.66
2023-03-03T14:13:20.290Z,99840.97
2023-03-03T14:16:06.223Z,99850.72
2023-03-03T14:19:02.817Z,99843.81
2023-03-03T14:21:36.515Z,99841.63
2023-03-03T14:24:20.582Z,99834.72
2023-03-03T14:26:50.737Z,99835.81
2023-03-03T14:29:30.744Z,99826.06
2023-03-03T14:32:03.518Z,99830.84
2023-03-03T14:34:41.498Z,99829.38
2023-03-03T14:37:24.935Z,99822.28
2023-03-03T14:40:17.247Z,99818.81
2023-03-03T14:42:54.835Z,99827.91
2023-03-03T14:45:33.854Z,99814.03
2023-03-03T14:48:12.362Z,99818.84
2023-03-03T14:50:48.616Z,99812.88
2023-03-03T14:53:22.396Z,99816.91
2023-03-03T14:55:51.821Z,99821.97
2023-03-03T14:58:26.140Z,99823.53
2023-03-03T15:01:15.451Z,99821.19
2023-03-03T15:03:49.281Z,99829.66
2023-03-03T15:06:39.395Z,99832.03
2023-03-03T15:09:27.869Z,99831.19
2023-03-03T15:11:58.311Z,99826.31
2023-03-03T15:16:59.961Z,99835.91
2023-03-03T15:19:27.547Z,99833.87
2023-03-03T15:36:31.989Z,99837.25
2023-03-03T15:42:24.380Z,99846.59
2023-03-03T15:45:02.114Z,99845.84
2023-03-03T15:48:37.487Z,99847.87
2023-03-03T15:51:20.934Z,99847.87
2023-03-03T15:54:06.956Z,99847.94
2023-03-03T15:56:58.466Z,99853.81
2023-03-03T16:02:22.792Z,99860.81
2023-03-03T16:05:00.332Z,99860.81
2023-03-03T16:07:41.495Z,99862.44
2023-03-03T16:13:42.536Z,99863.81
2023-03-03T16:16:28.973Z,99867.81
2023-03-03T16:22:13.045Z,99878.78
2023-03-03T16:28:02.451Z,99880.84
2023-03-03T16:33:44.488Z,99891.22
2023-03-03T16:39:06.411Z,99893.53
2023-03-03T16:41:48.011Z,99898.19
2023-03-03T16:50:45.094Z,99905.53
2023-03-03T16:53:31.941Z,99909.06
2023-03-03T16:56:22.548Z,99914.12
2023-03-03T16:59:18.375Z,99913.28
2023-03-03T17:02:04.198Z,99915.84
2023-03-03T17:04:42.751Z,99921.00
2023-03-03T17:07:30.879Z,99926.78
2023-03-03T17:10:29.905Z,99918.38
2023-03-03T17:13:03.726Z,99923.66
2023-03-03T17:16:03.299Z,99914.53
2023-03-03T17:18:45.016Z,99922.06
2023-03-03T17:21:51.554Z,99929.25
2023-03-03T17:24:31.410Z,99931.09
2023-03-03T17:27:41.379Z,99935.84
2023-03-03T17:30:28.208Z,99930.13
2023-03-03T17:33:41.218Z,99922.75
2023-03-03T17:36:09.307Z,99925.28
2023-03-03T17:38:37.486Z,99933.13
2023-03-03T17:41:17.305Z,99937.34
2023-03-03T17:44:09.469Z,99940.84
2023-03-03T17:47:08.403Z,99933.06
2023-03-03T17:49:47.120Z,99931.69
2023-03-03T17:52:50.419Z,99933.34
2023-03-03T17:55:52.464Z,99947.66
2023-03-03T17:58:29.463Z,99937.66
2023-03-03T18:01:14.116Z,99943.00
2023-03-03T18:04:01.173Z,99943.69
2023-03-03T18:07:01.654Z,99945.94
2023-03-03T18:09:54.977Z,99952.31
2023-03-03T18:12:42.988Z,99954.25
2023-03-03T18:15:31.203Z,99966.50
2023-03-03T18:18:11.855Z,99958.19
2023-03-03T18:21:07.714Z,99965.81
2023-03-03T18:23:42.431Z,99964.44
2023-03-03T18:26:34.680Z,99967.19
2023-03-03T18:29:20.214Z,99971.00
2023-03-03T18:31:54.344Z,99960.28
2023-03-03T18:34:22.110Z,99967.97
2023-03-03T18:37:11.731Z,99960.81
2023-03-03T18:39:46.201Z,99961.69
2023-03-03T18:42:17.861Z,99967.78
2023-03-03T18:44:48.052Z,99964.50
2023-03-03T18:47:17.656Z,99967.69
2023-03-03T18:50:01.813Z,99966.88
2023-03-03T18:52:32.604Z,99968.84
2023-03-03T18:55:09.552Z,99973.94
2023-03-03T18:57:39.100Z,99970.09
2023-03-03T19:00:36.740Z,99971.72
2023-03-03T19:03:26.214Z,99967.38
2023-03-03T19:09:19.310Z,99965.56
2023-03-03T19:29:41.890Z,99977.38
2023-03-03T19:41:29.209Z,99993.72
2023-03-03T19:52:25.331Z,99990.19
2023-03-03T19:59:50.055Z,100007.03
2023-03-03T20:23:30.807Z,100013.09
2023-03-03T20:42:13.833Z,100015.22
2023-03-03T20:44:58.012Z,100024.25
2023-03-03T20:47:44.917Z,100022.88
2023-03-03T20:58:58.898Z,100017.44
2023-03-03T21:04:30.956Z,100018.28
2023-03-03T21:07:02.202Z,100018.03
2023-03-03T21:09:32.884Z,100007.31
2023-03-03T21:12:03.345Z,100011.84
2023-03-03T21:28:38.329Z,100007.84
2023-03-03T21:33:56.909Z,100011.22
2023-03-03T21:36:24.487Z,100003.84
2023-03-03T21:38:53.609Z,100015.50
2023-03-03T21:41:21.572Z,100012.03
2023-03-03T21:43:51.409Z,100017.59
2023-03-03T21:46:20.653Z,100017.38
2023-03-03T21:48:48.864Z,100009.84
2023-03-03T21:53:58.501Z,100026.22
2023-03-03T21:56:26.003Z,100023.75
2023-03-03T21:58:53.332Z,100021.28
2023-03-03T22:01:22.314Z,100024.34
2023-03-03T22:03:50.151Z,100026.28
2023-03-03T22:06:17.912Z,100033.13
2023-03-03T22:08:45.948Z,100021.78
2023-03-03T22:11:15.534Z,100022.72
2023-03-03T22:13:43.168Z,100029.59
2023-03-03T22:18:54.345Z,100031.31
2023-03-03T22:24:09.542Z,100039.19
2023-03-03T22:26:37.061Z,100040.22
2023-03-03T22:32:11.096Z,100028.19
2023-03-03T22:34:39.206Z,100028.19
2023-03-03T22:37:06.775Z,100040.84
2023-03-03T22:39:36.441Z,100040.66
2023-03-03T22:42:04.348Z,100041.63
2023-03-03T22:44:31.895Z,100037.50
2023-03-03T22:46:59.580Z,100044.78
2023-03-03T22:49:27.325Z,100044.94
2023-03-03T22:51:54.838Z,100039.06
2023-03-03T22:54:22.201Z,100040.56
2023-03-03T22:56:50.041Z,100039.12
2023-03-03T22:59:17.656Z,100048.78
2023-03-03T23:01:45.057Z,100051.09
2023-03-03T23:04:12.752Z,100053.75
2023-03-03T23:06:40.144Z,100038.22
2023-03-03T23:09:07.880Z,100046.06
2023-03-03T23:11:35.722Z,100046.34
2023-03-03T23:14:03.125Z,100039.25
2023-03-03T23:16:30.646Z,100044.72
2023-03-03T23:18:58.480Z,100035.91
2023-03-03T23:21:26.269Z,100037.88
2023-03-03T23:23:53.771Z,100039.75
2023-03-03T23:26:21.580Z,100033.16
2023-03-03T23:28:49.064Z,100036.16
2023-03-03T23:31:16.786Z,100035.41
2023-03-03T23:33:44.597Z,100038.84
2023-03-03T23:36:12.352Z,100033.72
2023-03-03T23:38:42.634Z,100039.72
2023-03-03T23:41:10.883Z,100042.50
2023-03-03T23:43:38.309Z,100037.31
2023-03-03T23:46:05.716Z,100026.63
2023-03-03T23:48:33.634Z,100033.00
2023-03-03T23:51:01.530Z,100029.53
2023-03-03T23:53:28.923Z,100025.44
2023-03-03T23:55:56.634Z,100019.16
2023-03-03T23:58:24.017Z,100013.09
